Terminal Aerodrome Forecast
Issued by NWS Missoula, MT

Home | Current Version | Previous Version | Text Only | Print | Product List | Glossary On
Versions: 1 2 3 4 5 6 7 8 9 10 11 12 13 14
225
FTUS45 KMSO 081120
TAFMSO
TAF
KMSO 081120Z 0812/0912 26003KT P6SM OVC070
     FM081700 32004KT P6SM SCT100
     FM091000 00000KT 6SM BR SCT010=

USA.gov is the U.S. government's official web portal to all federal, state and local government web resources and services.